Time;durP1;ratioP1;P1;durP2;ratioP2;P2;SDS_P1;SDS_P2;PMS_P1;PMS_P2;Temp;Humidity;BMP_temperature;BMP_pressure;BME280_temperature;BME280_humidity;BME280_pressure;Samples;Min_cycle;Max_cycle;Signal;HPM_P1;HPM_P2
2021/08/27 00:02:19;;;;;;;6.05;2.00;;;;;;;;;;5032566;28;20030;-52
2021/08/27 00:04:44;;;;;;;5.03;1.92;;;;;;;;;;5031642;28;20366;-52
2021/08/27 00:07:10;;;;;;;4.47;1.98;;;;;;;;;;5032390;28;20025;-52
2021/08/27 00:09:36;;;;;;;9.80;2.63;;;;;;;;;;5032161;28;20068;-52
2021/08/27 00:12:03;;;;;;;6.50;2.45;;;;;;;;;;5032456;28;20060;-52
2021/08/27 00:14:29;;;;;;;4.75;2.58;;;;;;;;;;5032546;28;20022;-52
2021/08/27 00:16:56;;;;;;;3.83;1.98;;;;;;;;;;5032690;28;20026;-53
2021/08/27 00:19:22;;;;;;;4.50;1.98;;;;;;;;;;5031516;28;20049;-52
2021/08/27 00:24:51;;;;;;;5.15;1.83;;;;;;;;;;5007930;28;20037;-53
2021/08/27 00:27:17;;;;;;;8.45;2.13;;;;;;;;;;5017710;28;20099;-53
2021/08/27 00:29:43;;;;;;;6.20;2.38;;;;;;;;;;5032302;28;20034;-52
2021/08/27 00:32:09;;;;;;;6.22;2.60;;;;;;;;;;5032339;28;20017;-52
2021/08/27 00:34:35;;;;;;;5.82;2.50;;;;;;;;;;5031238;28;20034;-52
2021/08/27 00:37:04;;;;;;;5.50;2.65;;;;;;;;;;5032093;28;20025;-52
2021/08/27 00:39:30;;;;;;;5.20;2.15;;;;;;;;;;5018293;28;20121;-52
2021/08/27 00:41:56;;;;;;;6.05;2.10;;;;;;;;;;5028459;28;20112;-52
2021/08/27 00:44:22;;;;;;;3.83;1.88;;;;;;;;;;5032006;28;20041;-53
2021/08/27 00:46:48;;;;;;;3.38;2.05;;;;;;;;;;5024391;28;20022;-52
2021/08/27 00:49:14;;;;;;;3.90;1.80;;;;;;;;;;5010746;28;20444;-52
2021/08/27 00:51:41;;;;;;;6.20;1.85;;;;;;;;;;5027842;28;20033;-52
2021/08/27 00:54:07;;;;;;;6.72;2.60;;;;;;;;;;5030851;28;20029;-52
2021/08/27 00:56:33;;;;;;;3.30;1.80;;;;;;;;;;5033446;28;20029;-53
2021/08/27 00:58:59;;;;;;;6.70;2.00;;;;;;;;;;5035583;28;20037;-53
2021/08/27 01:01:25;;;;;;;6.63;2.60;;;;;;;;;;5036183;28;20026;-52
2021/08/27 01:03:51;;;;;;;4.85;2.40;;;;;;;;;;5035548;28;20025;-53
2021/08/27 01:06:32;;;;;;;3.95;2.13;;;;;;;;;;5034603;28;20038;-53
2021/08/27 01:09:01;;;;;;;3.42;1.83;;;;;;;;;;5035771;28;20108;-53
2021/08/27 01:11:26;;;;;;;5.28;2.15;;;;;;;;;;5035809;28;20064;-53
2021/08/27 01:13:56;;;;;;;5.53;2.03;;;;;;;;;;5035044;28;20030;-52
2021/08/27 01:16:30;;;;;;;8.30;2.67;;;;;;;;;;5035600;28;20021;-53
2021/08/27 01:19:08;;;;;;;5.15;2.30;;;;;;;;;;5035736;28;20037;-52
2021/08/27 01:21:53;;;;;;;5.88;2.25;;;;;;;;;;5034371;28;20172;-53
2021/08/27 01:24:19;;;;;;;4.20;2.20;;;;;;;;;;5034861;28;20026;-53
2021/08/27 01:26:49;;;;;;;8.75;2.00;;;;;;;;;;5035161;28;20029;-53
2021/08/27 01:29:20;;;;;;;5.50;2.17;;;;;;;;;;5035729;28;20388;-52
2021/08/27 01:31:49;;;;;;;5.63;2.50;;;;;;;;;;5035154;28;20735;-53
2021/08/27 01:34:34;;;;;;;10.25;3.10;;;;;;;;;;5034868;28;20029;-53
2021/08/27 01:37:00;;;;;;;3.17;2.25;;;;;;;;;;5033413;28;20083;-52
2021/08/27 01:39:31;;;;;;;7.70;2.70;;;;;;;;;;5035672;28;20033;-52
2021/08/27 01:41:58;;;;;;;5.35;3.20;;;;;;;;;;5040201;28;20032;-53
2021/08/27 01:44:25;;;;;;;10.73;2.97;;;;;;;;;;5054560;28;20112;-52
2021/08/27 01:46:53;;;;;;;6.80;2.85;;;;;;;;;;5054758;28;20545;-53
2021/08/27 01:49:19;;;;;;;5.55;3.10;;;;;;;;;;5054571;28;20021;-52
2021/08/27 01:51:47;;;;;;;3.65;2.17;;;;;;;;;;5040719;28;20340;-52
2021/08/27 01:54:14;;;;;;;7.25;3.00;;;;;;;;;;5033676;28;20091;-53
2021/08/27 01:56:40;;;;;;;7.22;2.78;;;;;;;;;;5034927;28;20037;-53
2021/08/27 01:59:07;;;;;;;3.55;2.38;;;;;;;;;;5035218;28;20034;-53
2021/08/27 02:01:33;;;;;;;3.83;2.00;;;;;;;;;;5034701;28;20059;-53
2021/08/27 02:04:03;;;;;;;6.78;2.88;;;;;;;;;;5034154;28;20052;-53
2021/08/27 02:06:29;;;;;;;5.15;2.78;;;;;;;;;;5033404;28;20021;-53
2021/08/27 02:08:56;;;;;;;4.75;2.72;;;;;;;;;;5033775;28;20036;-53
2021/08/27 02:11:22;;;;;;;7.07;3.05;;;;;;;;;;5034545;28;20025;-52
2021/08/27 02:13:48;;;;;;;5.00;2.58;;;;;;;;;;5033956;28;20022;-53
2021/08/27 02:16:15;;;;;;;6.70;2.80;;;;;;;;;;5034779;28;20025;-53
2021/08/27 02:18:41;;;;;;;10.00;3.08;;;;;;;;;;5028123;28;20030;-52
2021/08/27 02:21:08;;;;;;;9.02;2.83;;;;;;;;;;5033442;28;20029;-52
2021/08/27 02:23:36;;;;;;;6.80;2.97;;;;;;;;;;5033197;28;20021;-52
2021/08/27 02:26:02;;;;;;;5.57;2.80;;;;;;;;;;5034327;28;20108;-52
2021/08/27 02:28:29;;;;;;;4.80;2.58;;;;;;;;;;5033670;28;20356;-53
2021/08/27 02:30:56;;;;;;;5.68;2.83;;;;;;;;;;5034165;28;20518;-53
2021/08/27 02:33:24;;;;;;;9.70;3.50;;;;;;;;;;5033425;28;20026;-53
2021/08/27 02:35:50;;;;;;;8.48;3.67;;;;;;;;;;5033186;28;20030;-53
2021/08/27 02:38:18;;;;;;;7.80;3.03;;;;;;;;;;5033974;28;20167;-52
2021/08/27 02:40:44;;;;;;;8.52;3.65;;;;;;;;;;5033856;28;20040;-53
2021/08/27 02:43:10;;;;;;;7.57;3.40;;;;;;;;;;5033496;28;20356;-53
2021/08/27 02:45:36;;;;;;;7.47;3.40;;;;;;;;;;5033206;28;20049;-53
2021/08/27 02:48:02;;;;;;;5.63;3.28;;;;;;;;;;5033136;28;20021;-53
2021/08/27 02:50:30;;;;;;;12.30;3.95;;;;;;;;;;5033740;28;20398;-53
2021/08/27 02:52:58;;;;;;;6.65;3.63;;;;;;;;;;5032641;28;20048;-53
2021/08/27 02:55:30;;;;;;;6.85;3.50;;;;;;;;;;5032954;28;20460;-53
2021/08/27 02:58:29;;;;;;;7.50;3.17;;;;;;;;;;5034013;28;20029;-53
2021/08/27 03:00:59;;;;;;;6.55;3.15;;;;;;;;;;5011439;28;20423;-53
2021/08/27 03:03:26;;;;;;;7.68;3.63;;;;;;;;;;5011006;28;20472;-53
2021/08/27 03:05:55;;;;;;;5.20;3.30;;;;;;;;;;5011277;28;20029;-53
2021/08/27 03:08:23;;;;;;;7.20;3.22;;;;;;;;;;5010041;28;20026;-53
2021/08/27 03:10:52;;;;;;;7.03;3.28;;;;;;;;;;4996644;28;20122;-53
2021/08/27 03:13:26;;;;;;;8.10;3.33;;;;;;;;;;4991351;28;20110;-52
2021/08/27 03:15:54;;;;;;;10.55;3.20;;;;;;;;;;4991124;28;20467;-53
2021/08/27 03:18:32;;;;;;;9.30;3.33;;;;;;;;;;4991832;28;20124;-52
2021/08/27 03:21:06;;;;;;;5.15;2.70;;;;;;;;;;4991323;28;20456;-53
2021/08/27 03:23:33;;;;;;;6.00;3.47;;;;;;;;;;5009503;28;20065;-52
2021/08/27 03:26:01;;;;;;;5.38;2.85;;;;;;;;;;4995035;28;20026;-52
2021/08/27 03:28:28;;;;;;;6.45;3.63;;;;;;;;;;4991531;28;20031;-53
2021/08/27 03:30:56;;;;;;;5.88;3.17;;;;;;;;;;4991132;28;20042;-52
2021/08/27 03:33:23;;;;;;;6.50;3.65;;;;;;;;;;4990750;28;20487;-52
2021/08/27 03:35:51;;;;;;;5.13;3.22;;;;;;;;;;4996079;28;20034;-52
2021/08/27 03:38:17;;;;;;;9.45;3.53;;;;;;;;;;5028933;28;20359;-53
2021/08/27 03:40:44;;;;;;;11.90;4.38;;;;;;;;;;5033061;28;20462;-52
2021/08/27 03:43:11;;;;;;;7.22;3.95;;;;;;;;;;5032890;28;20108;-52
2021/08/27 03:45:37;;;;;;;6.30;3.42;;;;;;;;;;5032477;28;20049;-52
2021/08/27 03:48:03;;;;;;;6.70;3.50;;;;;;;;;;5031902;28;20021;-53
2021/08/27 03:50:29;;;;;;;7.05;4.32;;;;;;;;;;5033269;28;20466;-52
2021/08/27 03:52:56;;;;;;;5.82;3.67;;;;;;;;;;5031454;28;20029;-53
2021/08/27 03:55:22;;;;;;;7.82;4.03;;;;;;;;;;5032042;28;20503;-52
2021/08/27 03:57:50;;;;;;;7.15;4.05;;;;;;;;;;5032699;28;20021;-52
2021/08/27 04:00:19;;;;;;;7.25;3.97;;;;;;;;;;5032305;28;20056;-52
2021/08/27 04:02:45;;;;;;;8.68;3.50;;;;;;;;;;5032625;28;20022;-52
2021/08/27 04:05:12;;;;;;;4.03;2.70;;;;;;;;;;5032264;28;20030;-52
2021/08/27 04:07:37;;;;;;;5.43;3.17;;;;;;;;;;5031675;28;20026;-53
2021/08/27 04:10:04;;;;;;;8.18;3.70;;;;;;;;;;5032400;28;20112;-53
2021/08/27 04:12:30;;;;;;;8.73;3.90;;;;;;;;;;5032799;28;20402;-52
2021/08/27 04:14:56;;;;;;;12.18;4.07;;;;;;;;;;5031103;28;20029;-52
2021/08/27 04:17:22;;;;;;;9.70;3.97;;;;;;;;;;5032522;28;20025;-52
2021/08/27 04:19:48;;;;;;;6.57;3.83;;;;;;;;;;5032518;28;20041;-53
2021/08/27 04:22:14;;;;;;;6.57;4.18;;;;;;;;;;5030335;28;20040;-53
2021/08/27 04:24:40;;;;;;;8.52;3.85;;;;;;;;;;5031527;28;20020;-52
2021/08/27 04:27:06;;;;;;;7.30;3.83;;;;;;;;;;5031863;28;20439;-52
2021/08/27 04:29:33;;;;;;;9.50;3.63;;;;;;;;;;5032821;28;20057;-52
2021/08/27 04:31:58;;;;;;;8.13;3.72;;;;;;;;;;5033404;28;20101;-52
2021/08/27 04:34:25;;;;;;;9.27;3.70;;;;;;;;;;5036158;28;20112;-52
2021/08/27 04:36:51;;;;;;;7.90;3.80;;;;;;;;;;5036202;28;20017;-52
2021/08/27 04:39:16;;;;;;;6.57;3.92;;;;;;;;;;5035257;28;20044;-52
2021/08/27 04:41:42;;;;;;;7.43;3.88;;;;;;;;;;5036331;28;20193;-52
2021/08/27 04:44:09;;;;;;;6.07;3.53;;;;;;;;;;5035318;28;20157;-52
2021/08/27 04:46:35;;;;;;;10.43;4.47;;;;;;;;;;5036147;28;20029;-52
2021/08/27 04:49:00;;;;;;;10.75;3.65;;;;;;;;;;5036251;28;20021;-53
2021/08/27 04:51:26;;;;;;;11.00;4.20;;;;;;;;;;5035770;28;20455;-52
2021/08/27 04:53:52;;;;;;;8.57;4.25;;;;;;;;;;5033973;28;20365;-52
2021/08/27 04:56:18;;;;;;;8.35;4.25;;;;;;;;;;5036024;28;20216;-53
2021/08/27 04:58:44;;;;;;;5.35;3.33;;;;;;;;;;5036203;28;20029;-52
2021/08/27 05:01:10;;;;;;;8.63;4.38;;;;;;;;;;5035393;28;20026;-53
2021/08/27 05:03:37;;;;;;;11.05;3.65;;;;;;;;;;5035529;28;20160;-53
2021/08/27 05:06:03;;;;;;;5.20;3.70;;;;;;;;;;5035869;28;20025;-53
2021/08/27 05:08:29;;;;;;;9.25;3.95;;;;;;;;;;5034295;28;20064;-52
2021/08/27 05:10:55;;;;;;;6.38;3.17;;;;;;;;;;5035942;28;20034;-53
2021/08/27 05:13:21;;;;;;;6.00;3.70;;;;;;;;;;5034741;28;20031;-53
2021/08/27 05:15:47;;;;;;;7.97;3.20;;;;;;;;;;5035664;28;20390;-53
2021/08/27 05:18:13;;;;;;;10.80;4.03;;;;;;;;;;5035975;28;20075;-53
2021/08/27 05:20:39;;;;;;;16.90;4.00;;;;;;;;;;5035466;28;20062;-53
2021/08/27 05:23:05;;;;;;;17.38;3.83;;;;;;;;;;5029687;28;20026;-53
2021/08/27 05:25:31;;;;;;;7.18;3.58;;;;;;;;;;5033538;28;20040;-53
2021/08/27 05:27:57;;;;;;;9.18;4.25;;;;;;;;;;5034975;28;20613;-53
2021/08/27 05:30:23;;;;;;;4.80;3.38;;;;;;;;;;5035221;28;20252;-53
2021/08/27 05:32:50;;;;;;;9.90;4.00;;;;;;;;;;5034592;28;20340;-53
2021/08/27 05:35:16;;;;;;;5.75;3.15;;;;;;;;;;5034530;28;20029;-53
2021/08/27 05:37:42;;;;;;;7.40;3.42;;;;;;;;;;5033389;28;20036;-53
2021/08/27 05:40:09;;;;;;;8.52;3.72;;;;;;;;;;5034593;28;20131;-53
2021/08/27 05:42:36;;;;;;;5.28;2.88;;;;;;;;;;5032511;28;20026;-53
2021/08/27 05:45:02;;;;;;;6.80;3.55;;;;;;;;;;5033878;28;20439;-53
2021/08/27 05:47:30;;;;;;;7.65;3.50;;;;;;;;;;5034415;28;20041;-53
2021/08/27 05:49:56;;;;;;;9.20;3.60;;;;;;;;;;5034286;28;20112;-53
2021/08/27 05:52:22;;;;;;;6.38;3.22;;;;;;;;;;5034204;28;20160;-53
2021/08/27 05:54:48;;;;;;;6.85;3.80;;;;;;;;;;5033112;28;20027;-53
2021/08/27 05:57:14;;;;;;;8.80;3.45;;;;;;;;;;5034680;28;20036;-52
2021/08/27 05:59:40;;;;;;;7.95;3.80;;;;;;;;;;5034908;28;20124;-51
2021/08/27 06:02:06;;;;;;;9.20;3.58;;;;;;;;;;5034876;28;20032;-51
2021/08/27 06:04:32;;;;;;;8.40;3.90;;;;;;;;;;5033859;28;20048;-51
2021/08/27 06:06:58;;;;;;;6.97;3.17;;;;;;;;;;5034837;28;20013;-51
2021/08/27 06:09:24;;;;;;;7.35;3.47;;;;;;;;;;5033266;28;20025;-51
2021/08/27 06:11:50;;;;;;;6.78;3.90;;;;;;;;;;5034558;28;20018;-51
2021/08/27 06:14:16;;;;;;;6.88;3.15;;;;;;;;;;5034084;28;20032;-52
2021/08/27 06:16:43;;;;;;;6.22;3.53;;;;;;;;;;5034156;28;20021;-52
2021/08/27 06:19:09;;;;;;;5.32;3.47;;;;;;;;;;5034532;28;20041;-52
2021/08/27 06:21:37;;;;;;;4.68;3.22;;;;;;;;;;5034765;28;20013;-52
2021/08/27 06:24:03;;;;;;;5.63;2.72;;;;;;;;;;5032328;28;20436;-52
2021/08/27 06:26:30;;;;;;;6.47;2.92;;;;;;;;;;5034130;28;20060;-52
2021/08/27 06:28:56;;;;;;;7.93;3.67;;;;;;;;;;5034364;28;20037;-51
2021/08/27 06:31:22;;;;;;;7.28;3.38;;;;;;;;;;5034246;28;20021;-52
2021/08/27 06:33:48;;;;;;;6.25;2.83;;;;;;;;;;5033469;28;20052;-51
2021/08/27 06:36:14;;;;;;;5.93;3.35;;;;;;;;;;5034226;28;20029;-52
2021/08/27 06:38:40;;;;;;;10.48;3.88;;;;;;;;;;5026769;28;20091;-51
2021/08/27 06:41:07;;;;;;;5.05;2.72;;;;;;;;;;5029941;28;20035;-51
2021/08/27 06:43:34;;;;;;;6.68;3.40;;;;;;;;;;5033613;28;20025;-53
2021/08/27 06:46:02;;;;;;;7.03;3.38;;;;;;;;;;5034138;28;20031;-52
2021/08/27 06:48:28;;;;;;;11.50;3.33;;;;;;;;;;5017091;28;20040;-52
2021/08/27 06:50:55;;;;;;;9.13;3.55;;;;;;;;;;5012783;28;20049;-52
2021/08/27 06:53:20;;;;;;;9.15;3.58;;;;;;;;;;5020324;28;20030;-51
2021/08/27 06:55:47;;;;;;;6.68;3.35;;;;;;;;;;5033324;28;20036;-51
2021/08/27 06:58:12;;;;;;;8.98;3.78;;;;;;;;;;5033822;28;20022;-52
2021/08/27 07:00:39;;;;;;;7.65;3.20;;;;;;;;;;5032031;28;20036;-51
2021/08/27 07:03:05;;;;;;;4.47;2.97;;;;;;;;;;5033741;28;20109;-51
2021/08/27 07:05:31;;;;;;;7.75;3.22;;;;;;;;;;5032894;28;20056;-52
2021/08/27 07:07:58;;;;;;;4.45;2.67;;;;;;;;;;5032981;28;20029;-51
2021/08/27 07:10:24;;;;;;;5.30;2.88;;;;;;;;;;5032868;28;20045;-51
2021/08/27 07:12:50;;;;;;;4.70;2.30;;;;;;;;;;5033777;28;20032;-51
2021/08/27 07:15:17;;;;;;;7.93;3.55;;;;;;;;;;5032774;28;20033;-52
2021/08/27 07:17:43;;;;;;;4.53;2.45;;;;;;;;;;5033451;28;20026;-51
2021/08/27 07:20:09;;;;;;;3.60;2.60;;;;;;;;;;5033554;28;20044;-51
2021/08/27 07:22:36;;;;;;;5.50;2.83;;;;;;;;;;5033551;28;20063;-51
2021/08/27 07:25:03;;;;;;;7.03;2.67;;;;;;;;;;5031557;28;20029;-51
2021/08/27 07:27:28;;;;;;;11.75;3.60;;;;;;;;;;5033090;28;20029;-51
2021/08/27 07:29:54;;;;;;;6.13;2.60;;;;;;;;;;5033167;28;20161;-52
2021/08/27 07:32:20;;;;;;;5.60;2.83;;;;;;;;;;5033094;28;20347;-51
2021/08/27 07:34:48;;;;;;;6.07;3.40;;;;;;;;;;5032558;28;20033;-52
2021/08/27 07:37:14;;;;;;;7.95;3.75;;;;;;;;;;5033100;28;20076;-52
2021/08/27 07:39:40;;;;;;;6.57;3.45;;;;;;;;;;5031713;28;20069;-51
2021/08/27 07:42:08;;;;;;;6.88;3.45;;;;;;;;;;5033070;28;20025;-52
2021/08/27 07:44:34;;;;;;;6.25;3.33;;;;;;;;;;5032172;28;20033;-51
2021/08/27 07:47:00;;;;;;;4.53;3.15;;;;;;;;;;5033078;28;20018;-52
2021/08/27 07:49:26;;;;;;;3.67;2.67;;;;;;;;;;5032968;28;20124;-52
2021/08/27 07:51:53;;;;;;;17.15;3.42;;;;;;;;;;5032660;28;20340;-51
2021/08/27 07:54:19;;;;;;;6.43;3.50;;;;;;;;;;5030821;28;20294;-51
2021/08/27 07:56:46;;;;;;;10.48;2.95;;;;;;;;;;5032673;28;20080;-51
2021/08/27 07:59:12;;;;;;;4.38;2.55;;;;;;;;;;5032942;28;20041;-52
2021/08/27 08:01:38;;;;;;;10.25;3.45;;;;;;;;;;5031058;28;20017;-52
2021/08/27 08:04:05;;;;;;;7.55;2.80;;;;;;;;;;5032033;28;20037;-51
2021/08/27 08:06:31;;;;;;;5.43;2.40;;;;;;;;;;5032119;28;20351;-51
2021/08/27 08:08:58;;;;;;;5.57;2.30;;;;;;;;;;5030959;28;20333;-52
2021/08/27 08:11:24;;;;;;;9.60;2.85;;;;;;;;;;5032748;28;20450;-51
2021/08/27 08:13:50;;;;;;;2.75;2.28;;;;;;;;;;5031859;28;20100;-51
2021/08/27 08:16:16;;;;;;;4.05;2.35;;;;;;;;;;5032819;28;20340;-51
2021/08/27 08:18:42;;;;;;;4.32;2.40;;;;;;;;;;5031991;28;20104;-52
2021/08/27 08:21:08;;;;;;;4.07;2.33;;;;;;;;;;5032953;28;20018;-52
2021/08/27 08:23:35;;;;;;;3.13;2.17;;;;;;;;;;5031070;28;20337;-52
2021/08/27 08:26:02;;;;;;;4.60;1.95;;;;;;;;;;5031974;28;20021;-52
2021/08/27 08:28:28;;;;;;;5.95;2.53;;;;;;;;;;5032344;28;20040;-52
2021/08/27 08:30:54;;;;;;;11.43;2.50;;;;;;;;;;5032397;28;20026;-52
2021/08/27 08:33:21;;;;;;;2.92;1.90;;;;;;;;;;5031715;28;20148;-52
2021/08/27 08:35:47;;;;;;;7.70;2.45;;;;;;;;;;5032463;28;20032;-51
2021/08/27 08:38:13;;;;;;;6.43;2.20;;;;;;;;;;5032089;28;20103;-51
2021/08/27 08:40:40;;;;;;;5.63;2.50;;;;;;;;;;5031308;28;20032;-51
2021/08/27 08:43:07;;;;;;;7.45;2.10;;;;;;;;;;5032421;28;20021;-52
2021/08/27 08:45:34;;;;;;;4.88;1.92;;;;;;;;;;5031791;28;20117;-51
2021/08/27 08:48:01;;;;;;;3.55;1.95;;;;;;;;;;5032317;28;20032;-52
2021/08/27 08:50:27;;;;;;;4.20;2.05;;;;;;;;;;5032352;28;20037;-52
2021/08/27 08:52:53;;;;;;;5.28;1.83;;;;;;;;;;5032405;28;20100;-52
2021/08/27 08:55:19;;;;;;;3.22;2.38;;;;;;;;;;5030353;28;20033;-52
2021/08/27 08:57:45;;;;;;;3.58;1.92;;;;;;;;;;5032542;28;20288;-51
2021/08/27 09:00:11;;;;;;;4.60;2.08;;;;;;;;;;5032041;28;20451;-51
2021/08/27 09:02:37;;;;;;;2.95;1.85;;;;;;;;;;5030101;28;20328;-51
2021/08/27 09:05:04;;;;;;;6.80;2.50;;;;;;;;;;5031505;28;20025;-52
2021/08/27 09:07:30;;;;;;;3.75;2.15;;;;;;;;;;5032656;28;20099;-51
2021/08/27 09:09:57;;;;;;;6.72;2.10;;;;;;;;;;5030762;28;20037;-52
2021/08/27 09:12:27;;;;;;;6.13;2.13;;;;;;;;;;5032616;28;20029;-52
2021/08/27 09:15:07;;;;;;;2.40;1.65;;;;;;;;;;5031028;28;20359;-51
2021/08/27 09:17:33;;;;;;;4.88;1.73;;;;;;;;;;5033478;28;20033;-52
2021/08/27 09:19:59;;;;;;;4.63;1.73;;;;;;;;;;5035493;28;20378;-52
2021/08/27 09:22:25;;;;;;;4.47;2.10;;;;;;;;;;5035757;28;20028;-52
2021/08/27 09:25:05;;;;;;;2.47;1.40;;;;;;;;;;5033807;28;20025;-52
2021/08/27 09:27:31;;;;;;;2.30;1.80;;;;;;;;;;5035092;28;20029;-51
2021/08/27 09:29:59;;;;;;;2.50;1.35;;;;;;;;;;5035016;28;20463;-52
2021/08/27 09:32:28;;;;;;;1.73;1.58;;;;;;;;;;5035647;28;20029;-52
2021/08/27 09:35:09;;;;;;;4.47;1.70;;;;;;;;;;5034871;28;20036;-52
2021/08/27 09:37:46;;;;;;;2.47;1.20;;;;;;;;;;5035289;28;20018;-52
2021/08/27 09:40:15;;;;;;;1.65;1.30;;;;;;;;;;5033680;28;20045;-52
2021/08/27 09:42:43;;;;;;;2.87;1.70;;;;;;;;;;5034907;28;20026;-52
2021/08/27 09:45:10;;;;;;;6.70;1.95;;;;;;;;;;5034564;28;20025;-51
2021/08/27 09:47:36;;;;;;;5.18;1.92;;;;;;;;;;5035269;28;20033;-52
2021/08/27 09:50:21;;;;;;;3.78;1.73;;;;;;;;;;5035134;28;20028;-52
2021/08/27 09:52:54;;;;;;;4.05;1.83;;;;;;;;;;5034802;28;20022;-52
2021/08/27 09:55:21;;;;;;;2.22;1.60;;;;;;;;;;5033236;28;20156;-52
2021/08/27 09:57:47;;;;;;;2.95;1.45;;;;;;;;;;5035226;28;20033;-52
2021/08/27 10:00:19;;;;;;;1.38;1.27;;;;;;;;;;5034570;28;20034;-52
2021/08/27 10:02:45;;;;;;;2.47;1.50;;;;;;;;;;5032925;28;20045;-52
2021/08/27 10:05:12;;;;;;;2.15;1.20;;;;;;;;;;5034163;28;20444;-52
2021/08/27 10:07:39;;;;;;;2.67;1.33;;;;;;;;;;5034780;28;20079;-52
2021/08/27 10:10:07;;;;;;;2.05;1.40;;;;;;;;;;5033479;28;20049;-51
2021/08/27 10:12:34;;;;;;;4.32;1.70;;;;;;;;;;5034881;28;20025;-51
2021/08/27 10:15:00;;;;;;;4.35;1.27;;;;;;;;;;5034068;28;20342;-52
2021/08/27 10:17:27;;;;;;;8.18;1.65;;;;;;;;;;5034280;28;20029;-52
2021/08/27 10:19:53;;;;;;;3.65;1.30;;;;;;;;;;5034435;28;20065;-51
2021/08/27 10:22:21;;;;;;;2.75;1.23;;;;;;;;;;5034868;28;20055;-52
2021/08/27 10:24:47;;;;;;;1.92;1.20;;;;;;;;;;5033385;28;20108;-52
2021/08/27 10:27:14;;;;;;;2.13;1.20;;;;;;;;;;5032779;28;20036;-51
2021/08/27 10:29:48;;;;;;;2.65;1.00;;;;;;;;;;5033221;28;20075;-52
2021/08/27 10:32:14;;;;;;;2.50;1.10;;;;;;;;;;5034606;28;20021;-51
2021/08/27 10:34:42;;;;;;;4.28;1.10;;;;;;;;;;5033655;28;20223;-51
2021/08/27 10:37:08;;;;;;;1.38;1.27;;;;;;;;;;5034504;28;20427;-51
2021/08/27 10:39:41;;;;;;;3.15;1.27;;;;;;;;;;5033413;28;20084;-51
2021/08/27 10:42:08;;;;;;;1.63;1.10;;;;;;;;;;5033193;28;20355;-52
2021/08/27 10:44:53;;;;;;;1.20;1.10;;;;;;;;;;5033565;28;20034;-52
2021/08/27 10:47:19;;;;;;;1.02;0.98;;;;;;;;;;5034410;28;20116;-52
2021/08/27 10:49:45;;;;;;;1.40;1.30;;;;;;;;;;5034183;28;20021;-51
2021/08/27 10:52:23;;;;;;;4.78;1.27;;;;;;;;;;5033609;28;20458;-51
2021/08/27 10:55:08;;;;;;;2.00;1.00;;;;;;;;;;5032502;28;20068;-51
2021/08/27 10:58:06;;;;;;;1.73;1.02;;;;;;;;;;5032865;28;20439;-51
2021/08/27 11:00:35;;;;;;;0.85;0.85;;;;;;;;;;5028874;28;20045;-52
2021/08/27 11:03:01;;;;;;;1.40;1.10;;;;;;;;;;5031069;28;20037;-52
2021/08/27 11:05:35;;;;;;;1.45;1.20;;;;;;;;;;5030556;28;20044;-51
2021/08/27 11:08:05;;;;;;;4.60;1.05;;;;;;;;;;5031262;28;20514;-52
2021/08/27 11:10:31;;;;;;;1.73;1.30;;;;;;;;;;5033323;28;20418;-51
2021/08/27 11:12:59;;;;;;;1.55;1.00;;;;;;;;;;5041692;28;20040;-51
2021/08/27 11:15:27;;;;;;;1.73;1.48;;;;;;;;;;5049959;28;20025;-51
2021/08/27 11:18:13;;;;;;;2.45;1.05;;;;;;;;;;5050875;28;20547;-51
2021/08/27 11:20:40;;;;;;;1.25;1.08;;;;;;;;;;5050906;28;20228;-52
2021/08/27 11:23:06;;;;;;;1.45;1.10;;;;;;;;;;5050786;28;20096;-51
2021/08/27 11:25:32;;;;;;;2.75;1.30;;;;;;;;;;5041098;28;20029;-51
2021/08/27 11:28:11;;;;;;;1.70;1.00;;;;;;;;;;5041483;28;20036;-51
2021/08/27 11:30:45;;;;;;;2.88;1.10;;;;;;;;;;5050681;28;20458;-52
2021/08/27 11:33:30;;;;;;;1.73;1.10;;;;;;;;;;5036579;28;20021;-52
2021/08/27 11:35:56;;;;;;;1.50;0.80;;;;;;;;;;5031335;28;20041;-52
2021/08/27 11:38:23;;;;;;;2.60;1.02;;;;;;;;;;5033414;28;20046;-52
2021/08/27 11:40:49;;;;;;;2.80;1.13;;;;;;;;;;5032344;28;20340;-52
2021/08/27 11:43:15;;;;;;;2.95;1.13;;;;;;;;;;5032207;28;20033;-51
2021/08/27 11:45:42;;;;;;;1.10;1.00;;;;;;;;;;5032860;28;20033;-51
2021/08/27 11:48:11;;;;;;;1.92;1.00;;;;;;;;;;5033198;28;20068;-51
2021/08/27 11:50:42;;;;;;;2.00;1.40;;;;;;;;;;5032622;28;20030;-51
2021/08/27 11:53:09;;;;;;;4.57;1.00;;;;;;;;;;5033143;28;20469;-51
2021/08/27 11:55:42;;;;;;;5.65;1.65;;;;;;;;;;5031719;28;20026;-52
2021/08/27 11:58:08;;;;;;;1.63;1.25;;;;;;;;;;5031852;28;20100;-52
2021/08/27 12:00:35;;;;;;;4.25;1.65;;;;;;;;;;5031251;28;20033;-52
2021/08/27 12:03:01;;;;;;;1.20;1.00;;;;;;;;;;5032523;28;20056;-51
2021/08/27 12:05:28;;;;;;;2.70;1.10;;;;;;;;;;5032042;28;20036;-52
2021/08/27 12:08:01;;;;;;;4.13;1.20;;;;;;;;;;5033071;28;20131;-52
2021/08/27 12:10:28;;;;;;;1.40;1.30;;;;;;;;;;5032698;28;20034;-51
2021/08/27 12:12:55;;;;;;;1.45;1.15;;;;;;;;;;5031875;28;20045;-52
2021/08/27 12:15:31;;;;;;;1.77;1.10;;;;;;;;;;5031453;28;20025;-52
2021/08/27 12:18:01;;;;;;;2.33;1.25;;;;;;;;;;5032702;28;20029;-52
2021/08/27 12:20:28;;;;;;;5.28;1.50;;;;;;;;;;5032973;28;20045;-52
2021/08/27 12:23:01;;;;;;;3.70;1.20;;;;;;;;;;5032721;28;20033;-51
2021/08/27 12:25:29;;;;;;;1.83;1.00;;;;;;;;;;5031255;28;20037;-51
2021/08/27 12:27:56;;;;;;;1.55;1.33;;;;;;;;;;5031498;28;20416;-52
2021/08/27 12:30:22;;;;;;;2.33;1.40;;;;;;;;;;5033200;28;20021;-52
2021/08/27 12:32:49;;;;;;;2.90;1.40;;;;;;;;;;5032259;28;20255;-52
2021/08/27 12:35:19;;;;;;;2.20;1.30;;;;;;;;;;5031775;28;20390;-52
2021/08/27 12:37:48;;;;;;;1.73;1.05;;;;;;;;;;5032457;28;20029;-52
2021/08/27 12:40:15;;;;;;;10.45;1.20;;;;;;;;;;5031457;28;20424;-52
2021/08/27 12:43:00;;;;;;;2.58;0.93;;;;;;;;;;5031468;28;20033;-52
2021/08/27 12:45:26;;;;;;;2.55;1.20;;;;;;;;;;5031525;28;20407;-52
2021/08/27 12:48:03;;;;;;;3.47;1.35;;;;;;;;;;5032317;28;20018;-51
2021/08/27 12:50:29;;;;;;;4.10;1.23;;;;;;;;;;5032230;28;20045;-52
2021/08/27 12:53:05;;;;;;;2.85;1.05;;;;;;;;;;5034011;28;20347;-52
2021/08/27 12:55:32;;;;;;;3.85;1.10;;;;;;;;;;5035168;28;20057;-52
2021/08/27 12:57:59;;;;;;;2.28;1.10;;;;;;;;;;5035103;28;20029;-52
2021/08/27 13:00:27;;;;;;;1.23;1.02;;;;;;;;;;5035637;28;20378;-52
2021/08/27 13:02:53;;;;;;;4.90;1.05;;;;;;;;;;5035206;28;20060;-52
2021/08/27 13:05:38;;;;;;;2.45;1.15;;;;;;;;;;5035421;28;20022;-52
2021/08/27 13:08:15;;;;;;;1.30;1.20;;;;;;;;;;5036117;28;20060;-52
2021/08/27 13:10:59;;;;;;;2.45;1.33;;;;;;;;;;5035018;28;20029;-51
2021/08/27 13:13:27;;;;;;;1.13;1.00;;;;;;;;;;5034431;28;20026;-52
2021/08/27 13:16:11;;;;;;;2.58;1.23;;;;;;;;;;5035890;28;20056;-52
2021/08/27 13:18:38;;;;;;;4.57;1.30;;;;;;;;;;5035179;28;20071;-52
2021/08/27 13:21:04;;;;;;;3.92;1.65;;;;;;;;;;5035695;28;20033;-51
2021/08/27 13:23:31;;;;;;;2.88;1.35;;;;;;;;;;5034749;28;20018;-52
2021/08/27 13:25:58;;;;;;;3.80;1.10;;;;;;;;;;5035043;28;20067;-52
2021/08/27 13:28:25;;;;;;;1.45;1.23;;;;;;;;;;5034420;28;20076;-52
2021/08/27 13:30:51;;;;;;;1.67;1.00;;;;;;;;;;5035788;28;20030;-52
2021/08/27 13:33:17;;;;;;;2.30;1.20;;;;;;;;;;5035211;28;20025;-52
2021/08/27 13:35:43;;;;;;;2.70;1.20;;;;;;;;;;5035202;28;20029;-51
2021/08/27 13:38:09;;;;;;;2.05;1.30;;;;;;;;;;5035283;28;20401;-51
2021/08/27 13:40:36;;;;;;;3.92;1.20;;;;;;;;;;5034597;28;20455;-52
2021/08/27 13:43:02;;;;;;;4.10;1.58;;;;;;;;;;5035358;28;20033;-51
2021/08/27 13:45:28;;;;;;;1.90;1.30;;;;;;;;;;5033751;28;20059;-51
2021/08/27 13:47:54;;;;;;;3.63;1.33;;;;;;;;;;5035294;28;20013;-51
2021/08/27 13:50:20;;;;;;;3.38;1.27;;;;;;;;;;5035691;28;20120;-52
2021/08/27 13:52:49;;;;;;;3.58;1.30;;;;;;;;;;5034732;28;20044;-52
2021/08/27 13:55:16;;;;;;;1.58;1.05;;;;;;;;;;5033831;28;20029;-52
2021/08/27 13:57:42;;;;;;;1.20;1.10;;;;;;;;;;5034386;28;20029;-51
2021/08/27 14:00:10;;;;;;;2.15;1.38;;;;;;;;;;5034259;28;20120;-51
2021/08/27 14:02:36;;;;;;;1.10;1.00;;;;;;;;;;5034323;28;20025;-51
2021/08/27 14:05:02;;;;;;;1.60;1.20;;;;;;;;;;5032255;28;20329;-52
2021/08/27 14:07:28;;;;;;;3.63;1.80;;;;;;;;;;5034742;28;20029;-52
2021/08/27 14:09:54;;;;;;;2.00;1.10;;;;;;;;;;5034525;28;20034;-52
2021/08/27 14:12:20;;;;;;;2.58;1.45;;;;;;;;;;5034461;28;20035;-52
2021/08/27 14:14:46;;;;;;;3.22;1.50;;;;;;;;;;5032249;28;20383;-52
2021/08/27 14:17:12;;;;;;;2.92;1.58;;;;;;;;;;5034887;28;20034;-51
2021/08/27 14:19:38;;;;;;;6.40;1.50;;;;;;;;;;5034520;28;20033;-51
2021/08/27 14:22:05;;;;;;;2.03;1.42;;;;;;;;;;5034510;28;20500;-51
2021/08/27 14:24:31;;;;;;;2.95;1.55;;;;;;;;;;5033791;28;20363;-51
2021/08/27 14:26:57;;;;;;;3.25;1.58;;;;;;;;;;5033991;28;20197;-52
2021/08/27 14:29:23;;;;;;;3.80;1.40;;;;;;;;;;5033331;28;20033;-51
2021/08/27 14:31:49;;;;;;;5.20;1.50;;;;;;;;;;5034334;28;20036;-52
2021/08/27 14:34:15;;;;;;;3.15;1.15;;;;;;;;;;5033606;28;20116;-52
2021/08/27 14:36:41;;;;;;;4.85;1.58;;;;;;;;;;5034651;28;20104;-51
2021/08/27 14:39:08;;;;;;;4.55;1.42;;;;;;;;;;5034641;28;20144;-52
2021/08/27 14:41:35;;;;;;;3.75;1.20;;;;;;;;;;5033614;28;20029;-51
2021/08/27 14:44:02;;;;;;;1.52;1.20;;;;;;;;;;5032720;28;20068;-51
2021/08/27 14:46:28;;;;;;;4.03;1.67;;;;;;;;;;5033902;28;20040;-52
2021/08/27 14:48:54;;;;;;;3.70;1.60;;;;;;;;;;5033643;28;20114;-52
2021/08/27 14:51:21;;;;;;;3.40;1.38;;;;;;;;;;5034533;28;20083;-52